createdAt,value
2022-08-08T00:00:55.558Z,4.05
2022-08-08T00:03:13.211Z,3.33
2022-08-08T00:06:28.549Z,3.28
2022-08-08T00:09:15.892Z,3.40
2022-08-08T00:12:07.537Z,3.53
2022-08-08T00:15:04.895Z,3.58
2022-08-08T00:18:03.320Z,3.88
2022-08-08T00:20:53.816Z,3.40
2022-08-08T00:23:54.275Z,3.75
2022-08-08T00:26:38.681Z,3.72
2022-08-08T00:29:15.091Z,3.45
2022-08-08T00:32:28.132Z,4.30
2022-08-08T00:35:18.789Z,3.22
2022-08-08T00:38:16.968Z,3.63
2022-08-08T00:41:16.939Z,3.03
2022-08-08T00:44:17.257Z,3.72
2022-08-08T00:47:23.074Z,3.63
2022-08-08T00:50:48.217Z,3.30
2022-08-08T00:53:43.523Z,3.58
2022-08-08T00:57:02.305Z,2.58
2022-08-08T00:59:56.427Z,3.58
2022-08-08T01:03:59.002Z,3.42
2022-08-08T01:06:27.279Z,3.00
2022-08-08T01:09:35.669Z,3.45
2022-08-08T01:12:25.633Z,3.53
2022-08-08T01:15:44.540Z,3.67
2022-08-08T01:18:52.472Z,3.63
2022-08-08T01:22:10.308Z,3.83
2022-08-08T01:24:53.645Z,3.42
2022-08-08T01:28:00.190Z,3.40
2022-08-08T01:31:00.107Z,3.55
2022-08-08T01:34:01.238Z,3.30
2022-08-08T01:36:50.721Z,3.13
2022-08-08T01:39:41.894Z,2.83
2022-08-08T01:42:36.637Z,2.85
2022-08-08T01:45:56.131Z,3.38
2022-08-08T01:49:03.807Z,3.45
2022-08-08T01:52:32.578Z,3.60
2022-08-08T01:55:45.986Z,3.35
2022-08-08T01:58:13.198Z,3.17
2022-08-08T02:01:01.406Z,3.35
2022-08-08T02:03:54.450Z,4.05
2022-08-08T02:06:43.383Z,4.13
2022-08-08T02:10:02.660Z,3.80
2022-08-08T02:12:48.226Z,3.92
2022-08-08T02:15:34.864Z,3.40
2022-08-08T02:18:38.938Z,3.65
2022-08-08T02:22:14.091Z,3.58
2022-08-08T02:24:52.426Z,3.97
2022-08-08T02:27:26.547Z,3.83
2022-08-08T02:30:20.796Z,4.18
2022-08-08T02:33:15.058Z,3.60
2022-08-08T02:36:04.525Z,4.22
2022-08-08T02:39:41.231Z,4.38
2022-08-08T02:42:38.141Z,3.75
2022-08-08T02:45:26.344Z,3.65
2022-08-08T02:48:11.634Z,4.10
2022-08-08T02:51:00.221Z,4.35
2022-08-08T02:53:57.845Z,4.65
2022-08-08T02:56:41.762Z,3.88
2022-08-08T02:59:58.039Z,3.97
2022-08-08T03:02:29.053Z,3.53
2022-08-08T03:05:44.812Z,4.22
2022-08-08T03:12:01.511Z,4.30
2022-08-08T03:16:02.085Z,4.30
2022-08-08T03:18:06.830Z,4.13
2022-08-08T03:20:52.054Z,4.47
2022-08-08T03:23:20.344Z,4.00
2022-08-08T03:25:50.372Z,4.20
2022-08-08T03:28:41.273Z,4.50
2022-08-08T03:31:26.715Z,4.13
2022-08-08T03:34:00.737Z,4.07
2022-08-08T03:36:30.676Z,4.30
2022-08-08T03:39:14.791Z,4.85
2022-08-08T03:42:28.778Z,3.88
2022-08-08T03:44:34.888Z,4.53
2022-08-08T03:47:14.010Z,4.78
2022-08-08T03:50:01.125Z,4.75
2022-08-08T03:52:31.371Z,4.28
2022-08-08T03:55:10.428Z,4.97
2022-08-08T03:58:31.567Z,4.75
2022-08-08T04:00:27.426Z,5.00
2022-08-08T04:02:59.274Z,5.05
2022-08-08T04:05:39.946Z,5.28
2022-08-08T04:08:33.860Z,5.32
2022-08-08T04:11:10.976Z,5.20
2022-08-08T04:14:03.387Z,4.78
2022-08-08T04:16:38.792Z,4.55
2022-08-08T04:19:24.038Z,4.75
2022-08-08T04:21:52.396Z,4.90
2022-08-08T04:24:29.473Z,4.95
2022-08-08T04:26:59.320Z,4.32
2022-08-08T04:29:27.448Z,5.03
2022-08-08T04:32:00.597Z,5.15
2022-08-08T04:34:31.852Z,4.82
2022-08-08T04:37:06.081Z,4.95
2022-08-08T04:40:04.390Z,5.35
2022-08-08T04:42:20.364Z,5.28
2022-08-08T04:44:47.480Z,4.93
2022-08-08T04:47:15.035Z,5.00
2022-08-08T04:49:58.548Z,5.35
2022-08-08T04:52:33.853Z,6.00
2022-08-08T04:55:02.318Z,5.18
2022-08-08T04:57:31.111Z,4.60
2022-08-08T04:59:59.712Z,4.93
2022-08-08T05:02:28.611Z,5.25
2022-08-08T05:04:59.411Z,5.68
2022-08-08T05:07:37.768Z,4.63
2022-08-08T05:10:12.832Z,5.25
2022-08-08T05:12:53.486Z,6.78
2022-08-08T05:16:48.304Z,6.25
2022-08-08T05:18:13.938Z,5.97
2022-08-08T05:20:50.509Z,5.97
2022-08-08T05:23:20.469Z,5.95
2022-08-08T05:25:48.833Z,5.78
2022-08-08T05:28:16.597Z,6.10
2022-08-08T05:31:19.478Z,5.43
2022-08-08T05:33:50.110Z,5.60
2022-08-08T05:36:25.143Z,5.65
2022-08-08T05:38:53.458Z,5.40
2022-08-08T05:41:25.822Z,5.63
2022-08-08T05:44:04.892Z,5.00
2022-08-08T05:46:33.082Z,5.00
2022-08-08T05:49:00.654Z,4.57
2022-08-08T05:51:48.611Z,4.68
2022-08-08T05:54:27.363Z,4.30
2022-08-08T05:57:04.653Z,4.43
2022-08-08T05:59:59.217Z,4.15
2022-08-08T06:02:48.173Z,3.60
2022-08-08T06:05:33.499Z,3.80
2022-08-08T06:08:10.373Z,3.30
2022-08-08T06:10:51.800Z,3.60
2022-08-08T06:13:22.598Z,3.90
2022-08-08T06:15:53.648Z,4.05
2022-08-08T06:18:23.797Z,3.40
2022-08-08T06:20:57.207Z,3.85
2022-08-08T06:23:48.500Z,3.70
2022-08-08T06:26:42.837Z,4.45
2022-08-08T06:29:26.623Z,4.47
2022-08-08T06:32:10.340Z,4.40
2022-08-08T06:34:52.611Z,4.53
2022-08-08T06:37:37.349Z,3.55
2022-08-08T06:40:14.255Z,4.72
2022-08-08T06:43:04.549Z,4.32
2022-08-08T06:45:34.045Z,5.50
2022-08-08T06:48:04.350Z,4.53
2022-08-08T06:50:33.485Z,3.70
2022-08-08T06:53:10.007Z,4.72
2022-08-08T06:55:47.300Z,3.73
2022-08-08T06:58:30.499Z,4.57
2022-08-08T07:01:00.172Z,3.95
2022-08-08T07:03:52.717Z,4.38
2022-08-08T07:06:26.969Z,4.68
2022-08-08T07:11:24.336Z,4.50
2022-08-08T07:14:00.340Z,4.57
2022-08-08T07:16:33.130Z,4.70
2022-08-08T07:19:06.538Z,4.30
2022-08-08T07:21:49.279Z,3.95
2022-08-08T07:24:22.976Z,3.35
2022-08-08T07:26:53.129Z,4.15
2022-08-08T07:30:01.809Z,4.35
2022-08-08T07:32:08.564Z,4.32
2022-08-08T07:34:48.376Z,4.75
2022-08-08T07:37:25.223Z,4.10
2022-08-08T07:39:57.799Z,3.33
2022-08-08T07:42:33.154Z,3.83
2022-08-08T07:45:01.991Z,4.07
2022-08-08T07:47:38.868Z,4.25
2022-08-08T07:50:07.224Z,3.42
2022-08-08T07:52:35.593Z,3.20
2022-08-08T07:55:10.669Z,3.80
2022-08-08T07:57:40.988Z,3.83
2022-08-08T08:00:16.456Z,3.63
2022-08-08T08:02:55.869Z,4.13
2022-08-08T08:05:33.055Z,3.95
2022-08-08T08:08:05.193Z,3.40
2022-08-08T08:10:35.627Z,4.15
2022-08-08T08:13:42.637Z,3.10
2022-08-08T08:16:26.744Z,3.30
2022-08-08T08:18:56.070Z,3.13
2022-08-08T08:21:44.151Z,2.85
2022-08-08T08:24:14.062Z,2.95
2022-08-08T08:26:46.838Z,2.88
2022-08-08T08:29:19.864Z,3.20
2022-08-08T08:31:57.933Z,3.10
2022-08-08T08:34:31.846Z,2.97
2022-08-08T08:36:59.890Z,3.15
2022-08-08T08:39:59.827Z,2.67
2022-08-08T08:42:14.882Z,2.70
2022-08-08T08:44:57.151Z,3.15
2022-08-08T08:47:24.680Z,3.28
2022-08-08T08:49:52.523Z,3.03
2022-08-08T08:52:22.168Z,3.00
2022-08-08T08:54:57.537Z,2.63
2022-08-08T08:57:25.227Z,3.63
2022-08-08T09:00:01.634Z,3.17
2022-08-08T09:02:33.883Z,3.10
2022-08-08T09:05:04.154Z,2.92
2022-08-08T09:07:39.224Z,3.00
2022-08-08T09:10:20.187Z,2.92
2022-08-08T09:12:50.475Z,2.80
2022-08-08T09:15:24.213Z,2.42
2022-08-08T09:18:04.559Z,3.30
2022-08-08T09:22:01.321Z,2.45
2022-08-08T09:23:25.295Z,2.50
2022-08-08T09:26:05.489Z,2.58
2022-08-08T09:28:37.154Z,2.50
2022-08-08T09:31:12.243Z,2.55
2022-08-08T09:34:14.846Z,2.30
2022-08-08T09:36:30.623Z,2.25
2022-08-08T09:39:10.262Z,2.42
2022-08-08T09:42:14.966Z,2.25
2022-08-08T09:44:36.708Z,2.60
2022-08-08T09:47:26.919Z,2.33
2022-08-08T09:49:58.893Z,2.17
2022-08-08T09:52:53.941Z,2.10
2022-08-08T09:55:51.690Z,2.10
2022-08-08T09:58:20.240Z,2.60
2022-08-08T10:00:57.590Z,2.42
2022-08-08T10:03:28.354Z,2.40
2022-08-08T10:05:58.674Z,2.92
2022-08-08T10:08:29.166Z,2.22
2022-08-08T10:11:01.533Z,2.42
2022-08-08T10:13:42.171Z,2.80
2022-08-08T10:16:09.747Z,2.90
2022-08-08T10:18:37.104Z,2.58
2022-08-08T10:21:24.800Z,2.25
2022-08-08T10:23:58.262Z,2.60
2022-08-08T10:26:56.626Z,3.22
2022-08-08T10:29:24.843Z,3.00
2022-08-08T10:32:15.432Z,2.40
2022-08-08T10:35:00.338Z,2.28
2022-08-08T10:37:31.741Z,2.55
2022-08-08T10:40:16.136Z,2.40
2022-08-08T10:42:45.140Z,2.70
2022-08-08T10:45:16.080Z,3.05
2022-08-08T10:47:48.514Z,2.35
2022-08-08T10:50:30.733Z,2.58
2022-08-08T10:53:07.760Z,2.92
2022-08-08T10:55:46.661Z,2.58
2022-08-08T10:58:15.588Z,2.67
2022-08-08T11:00:52.470Z,2.83
2022-08-08T11:03:37.117Z,2.65
2022-08-08T11:06:16.045Z,2.55
2022-08-08T11:08:53.250Z,3.00
2022-08-08T11:11:32.559Z,2.78
2022-08-08T11:14:08.549Z,2.50
2022-08-08T11:16:46.636Z,2.70
2022-08-08T11:19:15.318Z,2.60
2022-08-08T11:21:54.290Z,2.92
2022-08-08T11:24:27.178Z,2.67
2022-08-08T11:27:01.165Z,3.17
2022-08-08T11:29:50.918Z,2.50
2022-08-08T11:32:22.165Z,2.83
2022-08-08T11:35:24.983Z,2.63
2022-08-08T11:38:36.710Z,2.60
2022-08-08T11:40:52.714Z,2.45
2022-08-08T11:43:24.438Z,2.20
2022-08-08T11:46:13.346Z,2.95
2022-08-08T11:48:39.792Z,2.50
2022-08-08T11:51:39.177Z,2.75
2022-08-08T11:53:55.313Z,2.40
2022-08-08T11:56:31.467Z,2.70
2022-08-08T11:59:09.822Z,2.55
2022-08-08T12:01:37.087Z,2.45
2022-08-08T12:04:06.906Z,2.95
2022-08-08T12:06:33.866Z,2.65
2022-08-08T12:09:08.501Z,2.58
2022-08-08T12:11:45.871Z,2.55
2022-08-08T12:14:23.908Z,2.72
2022-08-08T12:16:57.006Z,2.65
2022-08-08T12:19:37.385Z,2.25
2022-08-08T12:22:12.976Z,2.55
2022-08-08T12:24:48.435Z,2.70
2022-08-08T12:27:20.992Z,2.50
2022-08-08T12:29:58.945Z,2.35
2022-08-08T12:32:25.863Z,2.33
2022-08-08T12:35:13.215Z,2.35
2022-08-08T12:38:01.349Z,2.45
2022-08-08T12:43:32.977Z,2.53
2022-08-08T12:46:29.200Z,2.13
2022-08-08T12:51:58.394Z,1.90
2022-08-08T12:54:33.120Z,2.40
2022-08-08T12:57:18.740Z,2.28
2022-08-08T13:00:05.953Z,2.40
2022-08-08T13:02:42.129Z,2.47
2022-08-08T13:05:26.766Z,2.75
2022-08-08T13:08:18.181Z,2.40
2022-08-08T13:11:04.208Z,2.30
2022-08-08T13:13:35.366Z,2.13
2022-08-08T13:16:21.087Z,2.60
2022-08-08T13:18:57.024Z,2.10
2022-08-08T13:21:36.319Z,2.80
2022-08-08T13:24:18.263Z,2.50
2022-08-08T13:26:45.818Z,2.78
2022-08-08T13:29:15.842Z,2.70
2022-08-08T13:31:50.948Z,2.30
2022-08-08T13:34:33.160Z,6.28
2022-08-08T13:37:03.776Z,2.13
2022-08-08T13:39:38.377Z,2.15
2022-08-08T13:42:09.229Z,2.15
2022-08-08T13:44:38.838Z,2.85
2022-08-08T13:47:17.766Z,2.80
2022-08-08T13:50:36.644Z,2.55
2022-08-08T13:52:37.958Z,2.47
2022-08-08T13:58:07.249Z,2.22
2022-08-08T14:00:24.575Z,2.70
2022-08-08T14:03:10.804Z,2.67
2022-08-08T14:06:00.487Z,2.15
2022-08-08T14:08:30.459Z,2.20
2022-08-08T14:11:02.040Z,2.40
2022-08-08T14:13:33.130Z,2.40
2022-08-08T14:16:02.140Z,2.20
2022-08-08T14:18:35.719Z,2.10
2022-08-08T14:21:20.854Z,2.45
2022-08-08T14:24:07.994Z,2.25
2022-08-08T14:26:45.985Z,2.35
2022-08-08T14:29:28.577Z,2.40
2022-08-08T14:32:09.429Z,2.00
2022-08-08T14:34:42.881Z,1.75
2022-08-08T14:37:12.689Z,2.10
2022-08-08T14:39:49.467Z,2.10
2022-08-08T14:42:37.249Z,3.35
2022-08-08T14:45:29.174Z,2.20
2022-08-08T14:48:02.622Z,2.40
2022-08-08T14:50:38.954Z,2.13
2022-08-08T14:53:09.967Z,2.58
2022-08-08T14:55:41.882Z,2.80
2022-08-08T14:58:16.171Z,2.53
2022-08-08T15:00:48.287Z,2.25
2022-08-08T15:03:17.351Z,2.17
2022-08-08T15:05:53.175Z,2.00
2022-08-08T15:08:34.273Z,2.10
2022-08-08T15:11:10.903Z,2.22
2022-08-08T15:14:01.777Z,2.05
2022-08-08T15:16:27.774Z,1.92
2022-08-08T15:18:55.194Z,2.00
2022-08-08T15:21:22.413Z,1.92
2022-08-08T15:23:54.752Z,2.20
2022-08-08T15:26:21.443Z,2.22
2022-08-08T15:28:53.936Z,2.30
2022-08-08T15:31:55.633Z,2.00
2022-08-08T15:34:29.731Z,2.28
2022-08-08T15:36:56.740Z,2.15
2022-08-08T15:39:23.484Z,2.08
2022-08-08T15:41:52.634Z,1.80
2022-08-08T15:44:21.123Z,2.25
2022-08-08T15:46:50.645Z,2.00
2022-08-08T15:49:20.401Z,1.85
2022-08-08T15:51:49.890Z,2.03
2022-08-08T15:54:18.865Z,2.28
2022-08-08T15:57:04.492Z,2.05
2022-08-08T16:00:05.219Z,2.00
2022-08-08T16:02:21.793Z,1.85
2022-08-08T16:04:58.667Z,2.38
2022-08-08T16:07:39.199Z,2.10
2022-08-08T16:13:15.665Z,2.05
2022-08-08T16:13:34.000Z,2.17
2022-08-08T16:15:59.166Z,2.25
2022-08-08T16:18:30.518Z,2.00
2022-08-08T16:21:00.629Z,2.00
2022-08-08T16:23:32.241Z,2.20
2022-08-08T16:26:04.309Z,1.63
2022-08-08T16:28:36.330Z,2.30
2022-08-08T16:31:07.523Z,2.20
2022-08-08T16:33:38.489Z,2.38
2022-08-08T16:36:08.885Z,2.17
2022-08-08T16:38:40.719Z,2.15
2022-08-08T16:41:20.217Z,2.33
2022-08-08T16:43:51.047Z,2.20
2022-08-08T16:46:36.386Z,2.08
2022-08-08T16:49:08.046Z,2.20
2022-08-08T16:55:02.516Z,2.00
2022-08-08T16:55:04.482Z,2.42
2022-08-08T16:57:43.534Z,1.90
2022-08-08T17:00:08.924Z,2.10
2022-08-08T17:02:44.299Z,2.53
2022-08-08T17:05:12.981Z,2.45
2022-08-08T17:07:42.020Z,2.45
2022-08-08T17:10:19.061Z,2.17
2022-08-08T17:12:53.231Z,2.17
2022-08-08T17:15:22.933Z,2.22
2022-08-08T17:18:02.420Z,2.00
2022-08-08T17:20:32.563Z,2.45
2022-08-08T17:23:17.856Z,2.25
2022-08-08T17:25:52.377Z,2.25
2022-08-08T17:28:35.382Z,2.40
2022-08-08T17:31:45.848Z,2.42
2022-08-08T17:34:35.763Z,2.15
2022-08-08T17:36:55.055Z,2.17
2022-08-08T17:40:04.266Z,2.63
2022-08-08T17:42:17.887Z,1.98
2022-08-08T17:44:45.494Z,2.83
2022-08-08T17:47:23.213Z,2.10
2022-08-08T17:49:52.941Z,2.22
2022-08-08T17:52:24.623Z,1.80
2022-08-08T17:54:56.105Z,2.25
2022-08-08T17:57:23.920Z,2.30
2022-08-08T17:59:51.806Z,2.28
2022-08-08T18:02:28.652Z,2.60
2022-08-08T18:04:58.432Z,2.33
2022-08-08T18:07:26.769Z,2.25
2022-08-08T18:10:14.561Z,2.78
2022-08-08T18:12:42.762Z,1.83
2022-08-08T18:15:12.316Z,2.28
2022-08-08T18:18:09.748Z,1.85
2022-08-08T18:20:44.115Z,2.53
2022-08-08T18:23:15.216Z,2.35
2022-08-08T18:25:42.993Z,2.38
2022-08-08T18:28:13.197Z,2.20
2022-08-08T18:30:41.683Z,2.58
2022-08-08T18:33:36.739Z,2.20
2022-08-08T18:36:02.969Z,2.65
2022-08-08T18:38:31.168Z,2.92
2022-08-08T18:40:59.316Z,3.03
2022-08-08T18:43:42.719Z,2.20
2022-08-08T18:46:56.929Z,2.45
2022-08-08T18:48:57.516Z,2.40
2022-08-08T18:51:53.734Z,2.92
2022-08-08T18:54:22.347Z,2.17
2022-08-08T18:56:51.313Z,2.65
2022-08-08T18:59:18.015Z,2.65
2022-08-08T19:02:25.505Z,2.85
2022-08-08T19:04:31.962Z,2.50
2022-08-08T19:07:02.609Z,2.95
2022-08-08T19:09:49.476Z,2.78
2022-08-08T19:12:16.709Z,2.95
2022-08-08T19:14:43.901Z,2.65
2022-08-08T19:17:11.654Z,2.72
2022-08-08T19:20:02.570Z,2.58
2022-08-08T19:22:29.899Z,2.75
2022-08-08T19:26:01.008Z,2.70
2022-08-08T19:27:56.568Z,2.50
2022-08-08T19:30:26.331Z,2.22
2022-08-08T19:32:54.222Z,2.60
2022-08-08T19:35:44.227Z,2.75
2022-08-08T19:38:12.832Z,2.75
2022-08-08T19:40:44.255Z,2.53
2022-08-08T19:43:11.917Z,2.90
2022-08-08T19:45:58.742Z,2.78
2022-08-08T19:48:30.536Z,2.95
2022-08-08T19:51:00.779Z,3.88
2022-08-08T19:53:53.213Z,2.72
2022-08-08T19:56:16.135Z,3.35
2022-08-08T19:58:51.738Z,2.92
2022-08-08T20:01:22.703Z,2.60
2022-08-08T20:06:29.997Z,3.17
2022-08-08T20:08:56.938Z,3.28
2022-08-08T20:11:24.475Z,2.65
2022-08-08T20:14:13.036Z,2.65
2022-08-08T20:16:40.560Z,2.92
2022-08-08T20:19:10.686Z,2.53
2022-08-08T20:21:38.441Z,2.90
2022-08-08T20:24:07.671Z,2.80
2022-08-08T20:26:35.771Z,3.17
2022-08-08T20:29:06.452Z,2.80
2022-08-08T20:32:08.136Z,2.35
2022-08-08T20:34:31.160Z,2.65
2022-08-08T20:37:00.100Z,2.42
2022-08-08T20:39:39.412Z,2.30
2022-08-08T20:42:13.743Z,2.80
2022-08-08T20:44:40.398Z,2.75
2022-08-08T20:47:15.879Z,3.00
2022-08-08T20:49:51.009Z,2.42
2022-08-08T20:52:24.162Z,2.70
2022-08-08T20:54:50.825Z,2.50
2022-08-08T20:57:20.952Z,2.38
2022-08-08T20:59:48.512Z,2.88
2022-08-08T21:02:19.686Z,2.70
2022-08-08T21:05:00.788Z,2.70
2022-08-08T21:07:47.009Z,2.70
2022-08-08T21:10:15.402Z,2.45
2022-08-08T21:12:45.948Z,2.83
2022-08-08T21:15:16.199Z,2.75
2022-08-08T21:18:00.798Z,2.13
2022-08-08T21:20:34.598Z,2.70
2022-08-08T21:23:08.912Z,2.28
2022-08-08T21:25:36.730Z,2.58
2022-08-08T21:28:14.941Z,2.65
2022-08-08T21:30:49.539Z,2.60
2022-08-08T21:33:18.640Z,2.75
2022-08-08T21:36:16.630Z,2.88
2022-08-08T21:38:32.585Z,2.88
2022-08-08T21:40:59.286Z,2.40
2022-08-08T21:43:34.388Z,2.78
2022-08-08T21:48:07.863Z,2.63
2022-08-08T21:48:57.035Z,2.72
2022-08-08T21:54:34.544Z,2.97
2022-08-08T21:54:51.683Z,2.95
2022-08-08T21:57:03.901Z,2.70
2022-08-08T22:00:02.039Z,3.17
2022-08-08T22:02:19.552Z,2.97
2022-08-08T22:04:51.564Z,2.95
2022-08-08T22:07:18.949Z,2.95
2022-08-08T22:09:45.868Z,3.10
2022-08-08T22:12:14.948Z,2.67
2022-08-08T22:14:47.301Z,2.72
2022-08-08T22:17:18.122Z,2.80
2022-08-08T22:20:12.596Z,3.15
2022-08-08T22:22:38.123Z,2.80
2022-08-08T22:25:19.890Z,3.10
2022-08-08T22:28:02.667Z,3.08
2022-08-08T22:30:31.627Z,2.83
2022-08-08T22:32:58.378Z,3.00
2022-08-08T22:35:27.431Z,2.80
2022-08-08T22:38:14.642Z,2.70
2022-08-08T22:40:44.982Z,2.88
2022-08-08T22:43:15.577Z,2.85
2022-08-08T22:45:43.796Z,2.78
2022-08-08T22:48:13.852Z,3.00
2022-08-08T22:50:40.632Z,3.08
2022-08-08T22:54:29.281Z,2.90
2022-08-08T22:55:57.745Z,2.85
2022-08-08T22:58:28.736Z,3.13
2022-08-08T23:00:59.686Z,2.78
2022-08-08T23:03:34.428Z,3.08
2022-08-08T23:06:14.415Z,3.13
2022-08-08T23:08:44.383Z,3.15
2022-08-08T23:11:22.135Z,2.90
2022-08-08T23:13:53.885Z,2.65
2022-08-08T23:16:38.280Z,3.38
2022-08-08T23:19:09.379Z,2.72
2022-08-08T23:21:38.054Z,3.42
2022-08-08T23:24:06.327Z,3.83
2022-08-08T23:26:34.205Z,2.83
2022-08-08T23:29:01.654Z,3.17
2022-08-08T23:31:28.375Z,3.40
2022-08-08T23:34:16.930Z,2.65
2022-08-08T23:36:42.392Z,3.38
2022-08-08T23:39:09.323Z,2.90
2022-08-08T23:41:41.649Z,3.25
2022-08-08T23:44:13.053Z,3.42
2022-08-08T23:49:07.545Z,3.58
2022-08-08T23:49:26.628Z,3.40
2022-08-08T23:52:05.544Z,3.30
2022-08-08T23:54:43.229Z,3.63
2022-08-08T23:57:26.519Z,3.03
